createdAt,value
2019-03-26T00:01:16.967Z,6.50
2019-03-26T00:03:49.466Z,6.50
2019-03-26T00:06:20.379Z,6.50
2019-03-26T00:08:51.286Z,6.50
2019-03-26T00:11:25.434Z,6.50
2019-03-26T00:13:57.751Z,6.50
2019-03-26T00:16:28.809Z,6.40
2019-03-26T00:19:00.023Z,6.30
2019-03-26T00:21:30.879Z,6.20
2019-03-26T00:24:01.927Z,6.10
2019-03-26T00:26:32.732Z,5.90
2019-03-26T00:29:06.406Z,5.80
2019-03-26T00:31:37.258Z,5.60
2019-03-26T00:34:18.749Z,5.70
2019-03-26T00:36:40.553Z,5.90
2019-03-26T00:39:11.414Z,5.80
2019-03-26T00:41:42.271Z,5.80
2019-03-26T00:44:13.136Z,5.80
2019-03-26T00:46:44.881Z,5.70
2019-03-26T00:49:17.297Z,5.60
2019-03-26T00:51:48.176Z,5.40
2019-03-26T00:54:19.000Z,5.20
2019-03-26T00:56:49.864Z,5.10
2019-03-26T00:59:20.828Z,5.10
2019-03-26T01:01:51.613Z,5.10
2019-03-26T01:04:32.302Z,5.00
2019-03-26T01:06:55.024Z,5.00
2019-03-26T01:09:25.823Z,5.00
2019-03-26T01:11:56.629Z,5.00
2019-03-26T01:14:28.607Z,5.10
2019-03-26T01:16:59.466Z,5.10
2019-03-26T01:19:30.476Z,5.10
2019-03-26T01:22:01.280Z,5.10
2019-03-26T01:24:32.135Z,5.10
2019-03-26T01:27:02.928Z,5.10
2019-03-26T01:29:33.748Z,5.10
2019-03-26T01:32:04.546Z,5.10
2019-03-26T01:34:45.522Z,5.10
2019-03-26T01:37:07.896Z,5.30
2019-03-26T01:39:38.795Z,5.40
2019-03-26T01:42:09.610Z,5.30
2019-03-26T01:44:40.434Z,5.30
2019-03-26T01:47:11.312Z,5.20
2019-03-26T01:49:42.141Z,5.10
2019-03-26T01:52:12.989Z,4.90
2019-03-26T01:54:43.987Z,4.80
2019-03-26T01:57:15.005Z,4.90
2019-03-26T01:59:45.913Z,4.90
2019-03-26T02:02:16.814Z,4.90
2019-03-26T02:04:59.380Z,4.80
2019-03-26T02:07:20.368Z,4.70
2019-03-26T02:09:51.260Z,4.60
2019-03-26T02:12:24.106Z,4.60
2019-03-26T02:14:54.944Z,4.60
2019-03-26T02:17:25.718Z,4.60
2019-03-26T02:19:57.707Z,4.50
2019-03-26T02:22:28.507Z,4.50
2019-03-26T02:25:01.401Z,4.50
2019-03-26T02:27:33.594Z,4.50
2019-03-26T02:30:05.036Z,4.50
2019-03-26T02:32:37.089Z,4.50
2019-03-26T02:35:17.685Z,4.40
2019-03-26T02:37:41.376Z,4.40
2019-03-26T02:40:13.195Z,4.50
2019-03-26T02:42:44.078Z,4.50
2019-03-26T02:45:15.002Z,4.40
2019-03-26T02:47:47.072Z,4.30
2019-03-26T02:50:17.955Z,4.40
2019-03-26T02:52:48.871Z,4.40
2019-03-26T02:55:19.735Z,4.40
2019-03-26T02:57:50.589Z,4.50
2019-03-26T03:00:21.867Z,4.40
2019-03-26T03:02:52.761Z,4.50
2019-03-26T03:05:35.271Z,4.40
2019-03-26T03:07:57.127Z,4.30
2019-03-26T03:10:29.163Z,4.20
2019-03-26T03:13:00.029Z,4.20
2019-03-26T03:15:30.873Z,4.20
2019-03-26T03:18:01.802Z,4.20
2019-03-26T03:20:34.989Z,4.20
2019-03-26T03:23:05.844Z,4.30
2019-03-26T03:25:36.700Z,4.30
2019-03-26T03:28:08.624Z,4.40
2019-03-26T03:30:39.405Z,4.40
2019-03-26T03:33:11.706Z,4.50
2019-03-26T03:35:51.909Z,4.50
2019-03-26T03:38:16.508Z,4.50
2019-03-26T03:40:47.633Z,4.50
2019-03-26T03:43:18.431Z,4.50
2019-03-26T03:45:49.540Z,4.50
2019-03-26T03:48:20.932Z,4.50
2019-03-26T03:50:53.634Z,4.50
2019-03-26T03:53:24.665Z,4.60
2019-03-26T03:55:58.663Z,4.70
2019-03-26T03:58:31.791Z,4.80
2019-03-26T04:01:02.595Z,4.90
2019-03-26T04:03:34.487Z,5.00
2019-03-26T04:06:09.454Z,5.10
2019-03-26T04:08:38.112Z,5.10
2019-03-26T04:11:08.925Z,5.10
2019-03-26T04:13:39.780Z,5.20
2019-03-26T04:16:10.565Z,5.40
2019-03-26T04:18:41.358Z,5.40
2019-03-26T04:21:12.141Z,5.50
2019-03-26T04:23:44.095Z,5.50
2019-03-26T04:26:14.992Z,5.60
2019-03-26T04:28:45.848Z,5.70
2019-03-26T04:31:16.827Z,5.60
2019-03-26T04:33:48.737Z,5.70
2019-03-26T04:36:25.881Z,5.70
2019-03-26T04:38:52.078Z,5.70
2019-03-26T04:41:22.882Z,5.70
2019-03-26T04:43:53.680Z,5.70
2019-03-26T04:46:24.569Z,5.70
2019-03-26T04:48:57.024Z,5.60
2019-03-26T04:51:27.917Z,5.70
2019-03-26T04:53:58.743Z,5.70
2019-03-26T04:56:29.642Z,5.80
2019-03-26T04:59:00.587Z,5.90
2019-03-26T05:01:32.411Z,5.90
2019-03-26T05:04:03.207Z,6.00
2019-03-26T05:06:38.212Z,6.00
2019-03-26T05:09:07.083Z,6.10
2019-03-26T05:11:40.643Z,6.20
2019-03-26T05:14:11.464Z,6.20
2019-03-26T05:16:42.372Z,6.20
2019-03-26T05:19:14.584Z,6.20
2019-03-26T05:21:46.963Z,6.20
2019-03-26T05:24:17.775Z,6.20
2019-03-26T05:26:48.640Z,6.10
2019-03-26T05:29:20.631Z,6.20
2019-03-26T05:31:51.487Z,6.20
2019-03-26T05:34:22.512Z,6.20
2019-03-26T05:37:00.924Z,6.20
2019-03-26T05:39:31.792Z,6.20
2019-03-26T05:42:02.714Z,6.20
2019-03-26T05:44:33.572Z,6.20
2019-03-26T05:47:04.478Z,6.20
2019-03-26T05:49:35.430Z,6.20
2019-03-26T05:52:06.337Z,6.30
2019-03-26T05:54:37.309Z,6.30
2019-03-26T05:57:08.213Z,6.30
2019-03-26T05:59:40.951Z,6.40
2019-03-26T06:02:15.122Z,6.40
2019-03-26T06:04:44.517Z,6.50
2019-03-26T06:07:15.426Z,6.50
2019-03-26T06:09:46.504Z,6.50
2019-03-26T06:12:17.432Z,6.50
2019-03-26T06:14:48.380Z,6.50
2019-03-26T06:17:19.246Z,6.50
2019-03-26T06:19:51.588Z,6.60
2019-03-26T06:22:22.529Z,6.60
2019-03-26T06:24:53.489Z,6.60
2019-03-26T06:27:24.509Z,6.60
2019-03-26T06:29:55.441Z,6.60
2019-03-26T06:32:26.439Z,6.60
2019-03-26T06:34:57.281Z,6.60
2019-03-26T06:37:30.915Z,6.70
2019-03-26T06:40:01.854Z,6.80
2019-03-26T06:42:32.735Z,6.80
2019-03-26T06:45:03.563Z,6.90
2019-03-26T06:47:34.368Z,7.00
2019-03-26T06:50:05.581Z,7.10
2019-03-26T06:52:36.458Z,7.10
2019-03-26T06:55:09.000Z,7.10
2019-03-26T06:57:40.035Z,7.10
2019-03-26T07:00:12.431Z,7.20
2019-03-26T07:02:43.544Z,7.20
2019-03-26T07:05:14.633Z,7.20
2019-03-26T07:07:45.487Z,7.20
2019-03-26T07:10:20.451Z,7.20
2019-03-26T07:12:51.304Z,7.10
2019-03-26T07:15:22.127Z,7.10
2019-03-26T07:17:52.962Z,7.10
2019-03-26T07:20:23.858Z,7.20
2019-03-26T07:22:58.093Z,7.20
2019-03-26T07:25:29.539Z,7.30
2019-03-26T07:28:00.374Z,7.30
2019-03-26T07:30:42.062Z,7.40
2019-03-26T07:33:12.938Z,7.50
2019-03-26T07:35:43.851Z,7.50
2019-03-26T07:38:14.722Z,7.60
2019-03-26T07:40:45.567Z,7.60
2019-03-26T07:43:16.406Z,7.60
2019-03-26T07:45:48.845Z,7.60
2019-03-26T07:48:19.766Z,7.60
2019-03-26T07:50:50.692Z,7.70
2019-03-26T07:53:21.676Z,7.60
2019-03-26T07:55:54.694Z,7.60
2019-03-26T07:58:25.673Z,7.60
2019-03-26T08:00:56.649Z,7.50
2019-03-26T08:03:29.120Z,7.50
2019-03-26T08:06:01.735Z,7.50
2019-03-26T08:08:32.674Z,7.50
2019-03-26T08:11:03.764Z,7.60
2019-03-26T08:13:34.878Z,7.60
2019-03-26T08:16:07.436Z,7.70
2019-03-26T08:18:38.536Z,7.80
2019-03-26T08:21:09.927Z,7.80
2019-03-26T08:23:40.899Z,7.80
2019-03-26T08:26:11.794Z,7.90
2019-03-26T08:28:42.695Z,7.90
2019-03-26T08:31:13.618Z,8.00
2019-03-26T08:33:44.452Z,8.00
2019-03-26T08:36:15.324Z,8.00
2019-03-26T08:38:46.237Z,8.00
2019-03-26T08:41:17.104Z,8.00
2019-03-26T08:43:47.973Z,8.00
2019-03-26T08:46:18.920Z,8.00
2019-03-26T08:48:51.340Z,8.10
2019-03-26T08:51:23.821Z,8.20
2019-03-26T08:53:56.494Z,8.30
2019-03-26T08:56:27.511Z,8.40
2019-03-26T08:58:58.350Z,8.50
2019-03-26T09:01:30.912Z,8.60
2019-03-26T09:04:01.869Z,8.60
2019-03-26T09:06:32.921Z,8.60
2019-03-26T09:09:05.868Z,8.70
2019-03-26T09:11:37.019Z,8.80
2019-03-26T09:14:08.064Z,8.90
2019-03-26T09:16:42.189Z,8.90
2019-03-26T09:19:16.678Z,8.90
2019-03-26T09:21:49.180Z,8.80
2019-03-26T09:24:20.166Z,8.90
2019-03-26T09:26:51.066Z,8.80
2019-03-26T09:29:23.495Z,8.90
2019-03-26T09:31:54.381Z,9.00
2019-03-26T09:34:25.427Z,8.90
2019-03-26T09:36:57.701Z,8.80
2019-03-26T09:39:29.157Z,8.90
2019-03-26T09:42:00.411Z,9.00
2019-03-26T09:44:31.328Z,9.00
2019-03-26T09:47:15.256Z,9.00
2019-03-26T09:49:34.900Z,9.00
2019-03-26T09:52:05.868Z,9.10
2019-03-26T09:54:36.750Z,9.10
2019-03-26T09:57:09.585Z,9.10
2019-03-26T09:59:40.589Z,9.20
2019-03-26T10:02:12.786Z,9.20
2019-03-26T10:04:43.853Z,9.30
2019-03-26T10:07:21.771Z,9.40
2019-03-26T10:09:52.065Z,9.30
2019-03-26T10:12:23.058Z,9.30
2019-03-26T10:14:53.893Z,9.30
2019-03-26T10:17:25.519Z,9.30
2019-03-26T10:19:56.576Z,9.20
2019-03-26T10:22:27.718Z,9.40
2019-03-26T10:25:00.386Z,9.40
2019-03-26T10:27:31.328Z,9.40
2019-03-26T10:30:05.555Z,9.50
2019-03-26T10:32:35.401Z,9.60
2019-03-26T10:35:06.767Z,9.60
2019-03-26T10:37:38.473Z,9.80
2019-03-26T10:40:11.130Z,9.60
2019-03-26T10:42:42.178Z,9.60
2019-03-26T10:45:13.251Z,9.60
2019-03-26T10:47:46.338Z,9.70
2019-03-26T10:50:16.988Z,9.60
2019-03-26T10:52:47.926Z,9.60
2019-03-26T10:55:18.881Z,9.50
2019-03-26T10:57:49.959Z,9.40
2019-03-26T11:00:21.009Z,9.40
2019-03-26T11:02:54.198Z,9.50
2019-03-26T11:05:25.327Z,9.50
2019-03-26T11:07:56.329Z,9.50
2019-03-26T11:10:27.224Z,9.50
2019-03-26T11:12:58.203Z,9.40
2019-03-26T11:15:29.152Z,9.50
2019-03-26T11:18:00.125Z,9.50
2019-03-26T11:20:31.745Z,9.50
2019-03-26T11:23:02.674Z,9.50
2019-03-26T11:25:35.397Z,9.40
2019-03-26T11:28:06.315Z,9.60
2019-03-26T11:30:38.303Z,9.70
2019-03-26T11:33:09.153Z,9.70
2019-03-26T11:35:40.057Z,9.60
2019-03-26T11:38:14.097Z,9.70
2019-03-26T11:40:43.612Z,9.80
2019-03-26T11:43:17.062Z,9.60
2019-03-26T11:45:47.952Z,9.60
2019-03-26T11:48:18.793Z,9.50
2019-03-26T11:50:50.108Z,9.50
2019-03-26T11:53:22.676Z,9.60
2019-03-26T11:55:53.581Z,9.70
2019-03-26T11:58:30.328Z,9.50
2019-03-26T12:00:57.197Z,9.50
2019-03-26T12:03:28.131Z,9.60
2019-03-26T12:06:00.771Z,9.70
2019-03-26T12:08:33.910Z,9.50
2019-03-26T12:11:06.224Z,9.50
2019-03-26T12:13:38.652Z,9.60
2019-03-26T12:16:09.658Z,9.60
2019-03-26T12:18:40.731Z,9.70
2019-03-26T12:21:11.708Z,9.80
2019-03-26T12:23:44.061Z,9.90
2019-03-26T12:26:15.014Z,9.90
2019-03-26T12:28:46.050Z,9.90
2019-03-26T12:31:17.126Z,10.00
2019-03-26T12:33:48.214Z,9.90
2019-03-26T12:36:19.285Z,10.20
2019-03-26T12:38:50.413Z,10.30
2019-03-26T12:41:21.574Z,10.30
2019-03-26T12:43:56.460Z,10.10
2019-03-26T12:46:27.463Z,9.90
2019-03-26T12:49:01.152Z,10.00
2019-03-26T12:51:32.160Z,10.20
2019-03-26T12:54:03.239Z,10.10
2019-03-26T12:56:34.385Z,10.10
2019-03-26T12:59:05.624Z,10.40
2019-03-26T13:01:36.963Z,10.50
2019-03-26T13:04:12.942Z,10.50
2019-03-26T13:06:43.393Z,10.40
2019-03-26T13:09:14.534Z,10.30
2019-03-26T13:11:47.005Z,10.70
2019-03-26T13:14:23.654Z,10.50
2019-03-26T13:16:54.450Z,10.30
2019-03-26T13:19:25.533Z,10.60
2019-03-26T13:21:56.887Z,10.30
2019-03-26T13:24:27.955Z,10.50
2019-03-26T13:27:00.099Z,10.60
2019-03-26T13:29:31.193Z,10.70
2019-03-26T13:32:11.626Z,10.60
2019-03-26T13:34:42.218Z,10.90
2019-03-26T13:37:13.510Z,11.00
2019-03-26T13:39:44.855Z,10.70
2019-03-26T13:42:16.001Z,11.00
2019-03-26T13:44:47.026Z,10.90
2019-03-26T13:47:18.049Z,10.70
2019-03-26T13:49:51.073Z,10.80
2019-03-26T13:52:22.228Z,10.70
2019-03-26T13:54:55.811Z,10.90
2019-03-26T13:57:28.646Z,10.80
2019-03-26T14:00:00.358Z,10.30
2019-03-26T14:02:32.059Z,10.40
2019-03-26T14:05:04.981Z,10.30
2019-03-26T14:07:37.902Z,10.60
2019-03-26T14:10:09.268Z,10.30
2019-03-26T14:12:41.892Z,10.30
2019-03-26T14:15:13.236Z,10.20
2019-03-26T14:17:50.031Z,10.20
2019-03-26T14:20:23.878Z,10.10
2019-03-26T14:22:55.453Z,10.40
2019-03-26T14:25:28.067Z,10.00
2019-03-26T14:27:59.265Z,9.80
2019-03-26T14:30:43.923Z,9.90
2019-03-26T14:33:20.902Z,9.80
2019-03-26T14:35:51.905Z,9.90
2019-03-26T14:38:23.752Z,9.70
2019-03-26T14:40:55.684Z,9.80
2019-03-26T14:43:27.578Z,9.70
2019-03-26T14:46:05.818Z,9.60
2019-03-26T14:48:33.635Z,9.40
2019-03-26T14:51:04.546Z,9.50
2019-03-26T14:53:35.512Z,9.60
2019-03-26T14:56:06.691Z,9.60
2019-03-26T17:57:42.524Z,8.20
2019-03-26T18:00:15.586Z,8.10
2019-03-26T18:02:48.269Z,8.10
2019-03-26T18:05:27.664Z,8.10
2019-03-26T18:07:58.832Z,8.10
2019-03-26T18:10:29.684Z,8.10
2019-03-26T18:13:00.569Z,8.00
2019-03-26T18:15:31.580Z,8.00
2019-03-26T18:18:05.263Z,8.00
2019-03-26T18:20:36.612Z,8.00
2019-03-26T18:23:07.641Z,7.90
2019-03-26T18:25:38.751Z,7.90
2019-03-26T18:28:09.786Z,7.90
2019-03-26T18:30:43.640Z,7.90
2019-03-26T18:33:14.648Z,7.80
2019-03-26T18:35:45.894Z,7.80
2019-03-26T18:38:18.237Z,7.80
2019-03-26T18:40:49.429Z,7.80
2019-03-26T18:43:20.580Z,7.80
2019-03-26T18:45:51.770Z,7.90
2019-03-26T18:48:22.701Z,7.80
2019-03-26T18:50:54.271Z,7.80
2019-03-26T18:53:26.493Z,7.70
2019-03-26T18:55:57.830Z,7.80
2019-03-26T18:58:29.050Z,7.70
2019-03-26T19:01:00.073Z,7.80
2019-03-26T19:03:32.592Z,7.80
2019-03-26T19:06:03.867Z,7.70
2019-03-26T19:08:34.881Z,7.70
2019-03-26T19:11:05.864Z,7.80
2019-03-26T19:13:39.197Z,7.70
2019-03-26T19:16:10.138Z,7.70
2019-03-26T19:18:41.104Z,7.70
2019-03-26T19:21:12.085Z,7.70
2019-03-26T19:23:45.858Z,7.70
2019-03-26T19:26:16.774Z,7.60
2019-03-26T19:28:47.608Z,7.70
2019-03-26T19:31:18.456Z,7.70
2019-03-26T19:33:49.320Z,7.60
2019-03-26T19:36:20.430Z,7.60
2019-03-26T19:38:51.307Z,7.60
2019-03-26T19:41:22.231Z,7.60
2019-03-26T19:43:53.104Z,7.60
2019-03-26T19:46:24.033Z,7.60
2019-03-26T19:48:54.971Z,7.60
2019-03-26T19:51:26.010Z,7.50
2019-03-26T19:53:56.964Z,7.60
2019-03-26T19:56:27.922Z,7.60
2019-03-26T19:59:00.478Z,7.60
2019-03-26T20:01:31.370Z,7.60
2019-03-26T20:04:03.463Z,7.50
2019-03-26T20:06:34.420Z,7.50
2019-03-26T20:09:06.821Z,7.50
2019-03-26T20:11:38.022Z,7.50
2019-03-26T20:14:09.019Z,7.50
2019-03-26T20:16:42.004Z,7.50
2019-03-26T20:19:13.730Z,7.60
2019-03-26T20:21:44.647Z,7.60
2019-03-26T20:24:15.608Z,7.50
2019-03-26T20:26:46.560Z,7.50
2019-03-26T20:29:17.871Z,7.50
2019-03-26T20:31:48.697Z,7.50
2019-03-26T20:34:21.322Z,7.50
2019-03-26T20:36:52.401Z,7.50
2019-03-26T20:39:24.363Z,7.50
2019-03-26T20:41:59.572Z,7.40
2019-03-26T20:44:30.538Z,7.50
2019-03-26T20:47:01.587Z,7.40
2019-03-26T20:49:32.574Z,7.50
2019-03-26T20:52:03.512Z,7.50
2019-03-26T20:54:34.700Z,7.40
2019-03-26T20:57:05.532Z,7.50
2019-03-26T20:59:36.666Z,7.40
2019-03-26T21:02:07.691Z,7.40
2019-03-26T21:04:38.645Z,7.40
2019-03-26T21:07:09.658Z,7.40
2019-03-26T21:09:42.367Z,7.40
2019-03-26T21:12:13.323Z,7.40
2019-03-26T21:14:44.360Z,7.30
2019-03-26T21:17:15.369Z,7.30
2019-03-26T21:19:47.543Z,7.30
2019-03-26T21:22:18.564Z,7.30
2019-03-26T21:24:49.466Z,7.20
2019-03-26T21:27:20.370Z,7.20
2019-03-26T21:29:51.380Z,7.20
2019-03-26T21:32:22.278Z,7.20
2019-03-26T21:34:53.396Z,7.20
2019-03-26T21:37:24.340Z,7.20
2019-03-26T21:39:55.204Z,7.10
2019-03-26T21:42:26.084Z,7.10
2019-03-26T21:44:57.267Z,7.10
2019-03-26T21:47:28.158Z,7.10
2019-03-26T21:49:59.249Z,7.10
2019-03-26T21:52:30.151Z,7.10
2019-03-26T21:55:01.055Z,7.10
2019-03-26T21:57:42.153Z,7.10
2019-03-26T22:00:13.375Z,7.10
2019-03-26T22:02:44.343Z,7.10
2019-03-26T22:05:15.460Z,7.10
2019-03-26T22:07:52.056Z,7.10
2019-03-26T22:10:29.149Z,7.00
2019-03-26T22:13:00.497Z,7.00
2019-03-26T22:15:31.379Z,7.00
2019-03-26T22:18:02.260Z,6.90
2019-03-26T22:20:33.187Z,7.00
2019-03-26T22:23:04.201Z,6.90
2019-03-26T22:25:36.494Z,7.00
2019-03-26T22:28:07.498Z,6.90
2019-03-26T22:30:38.434Z,7.00
2019-03-26T22:33:09.370Z,6.90
2019-03-26T22:35:40.434Z,6.90
2019-03-26T22:38:11.419Z,6.90
2019-03-26T22:40:42.466Z,6.90
2019-03-26T22:43:13.309Z,6.90
2019-03-26T22:45:47.365Z,6.90
2019-03-26T22:48:19.687Z,6.90
2019-03-26T22:50:53.621Z,6.90
2019-03-26T22:53:24.482Z,6.90
2019-03-26T22:55:55.348Z,6.80
2019-03-26T22:58:29.191Z,6.80
2019-03-26T23:01:00.787Z,6.80
2019-03-26T23:03:33.460Z,6.80
2019-03-26T23:06:07.164Z,6.80
2019-03-26T23:08:38.417Z,6.80
2019-03-26T23:11:10.046Z,6.70
2019-03-26T23:13:40.996Z,6.70
2019-03-26T23:16:12.280Z,6.60
2019-03-26T23:18:43.767Z,6.60
2019-03-26T23:21:19.510Z,6.50
2019-03-26T23:23:50.480Z,6.50
2019-03-26T23:26:21.419Z,6.40
2019-03-26T23:28:59.772Z,6.40
2019-03-26T23:31:33.276Z,6.40
2019-03-26T23:34:04.266Z,6.30
2019-03-26T23:36:35.222Z,6.30
2019-03-26T23:39:07.946Z,6.30
2019-03-26T23:41:39.941Z,6.30
2019-03-26T23:44:24.950Z,6.30
2019-03-26T23:46:45.026Z,6.30
2019-03-26T23:49:15.943Z,6.30
2019-03-26T23:51:46.905Z,6.30
2019-03-26T23:54:19.108Z,6.30
2019-03-26T23:56:50.116Z,6.30
2019-03-26T23:59:21.076Z,6.30
